sensor_id;sensor_type;location;lat;lon;timestamp;pressure;altitude;pressure_sealevel;temperature;humidity
6435;BME280;3250;42.694;23.278;2022-10-30T00:00:13;95589.53;;;9.18;84.04
6435;BME280;3250;42.694;23.278;2022-10-30T00:02:38;95591.06;;;9.27;83.65
6435;BME280;3250;42.694;23.278;2022-10-30T00:05:04;95606.94;;;9.34;82.84
6435;BME280;3250;42.694;23.278;2022-10-30T00:07:29;95613.25;;;9.39;82.87
6435;BME280;3250;42.694;23.278;2022-10-30T00:09:55;95583.13;;;9.06;83.49
6435;BME280;3250;42.694;23.278;2022-10-30T00:12:20;95605.13;;;9.20;83.65
6435;BME280;3250;42.694;23.278;2022-10-30T00:14:46;95618.53;;;9.25;83.44
6435;BME280;3250;42.694;23.278;2022-10-30T00:17:11;95619.16;;;9.27;83.22
6435;BME280;3250;42.694;23.278;2022-10-30T00:19:36;95623.41;;;9.28;83.24
6435;BME280;3250;42.694;23.278;2022-10-30T00:22:02;95600.16;;;9.10;83.01
6435;BME280;3250;42.694;23.278;2022-10-30T00:24:28;95626.66;;;9.30;82.63
6435;BME280;3250;42.694;23.278;2022-10-30T00:26:54;95628.66;;;9.28;82.17
6435;BME280;3250;42.694;23.278;2022-10-30T00:29:19;95628.22;;;9.24;83.05
6435;BME280;3250;42.694;23.278;2022-10-30T00:31:47;95628.00;;;9.26;82.70
6435;BME280;3250;42.694;23.278;2022-10-30T00:34:13;95608.31;;;9.15;82.76
6435;BME280;3250;42.694;23.278;2022-10-30T00:36:39;95627.22;;;9.25;82.51
6435;BME280;3250;42.694;23.278;2022-10-30T00:39:04;95556.38;;;8.81;82.13
6435;BME280;3250;42.694;23.278;2022-10-30T00:41:30;95621.34;;;9.23;82.15
6435;BME280;3250;42.694;23.278;2022-10-30T00:43:55;95569.19;;;8.91;82.40
6435;BME280;3250;42.694;23.278;2022-10-30T00:46:31;95612.81;;;9.21;82.23
6435;BME280;3250;42.694;23.278;2022-10-30T00:49:05;95621.06;;;9.18;82.72
6435;BME280;3250;42.694;23.278;2022-10-30T00:51:33;95604.16;;;9.06;83.88
6435;BME280;3250;42.694;23.278;2022-10-30T00:54:02;95549.03;;;8.77;84.00
6435;BME280;3250;42.694;23.278;2022-10-30T00:56:28;95542.69;;;8.71;84.48
6435;BME280;3250;42.694;23.278;2022-10-30T00:58:57;95614.38;;;9.16;84.14
6435;BME280;3250;42.694;23.278;2022-10-30T01:01:27;95570.91;;;8.84;83.85
6435;BME280;3250;42.694;23.278;2022-10-30T01:03:55;95601.53;;;9.06;84.55
6435;BME280;3250;42.694;23.278;2022-10-30T01:06:22;95602.22;;;9.00;84.36
6435;BME280;3250;42.694;23.278;2022-10-30T01:08:48;95600.25;;;9.02;84.05
6435;BME280;3250;42.694;23.278;2022-10-30T01:11:14;95572.63;;;8.91;83.89
6435;BME280;3250;42.694;23.278;2022-10-30T01:13:42;95566.56;;;8.91;83.58
6435;BME280;3250;42.694;23.278;2022-10-30T01:27:22;95578.00;;;8.98;83.45
6435;BME280;3250;42.694;23.278;2022-10-30T01:38:33;95577.81;;;8.85;82.84
6435;BME280;3250;42.694;23.278;2022-10-30T01:41:00;95564.84;;;8.83;82.90
6435;BME280;3250;42.694;23.278;2022-10-30T01:43:25;95502.00;;;8.46;83.02
6435;BME280;3250;42.694;23.278;2022-10-30T01:53:30;95562.22;;;8.83;83.90
6435;BME280;3250;42.694;23.278;2022-10-30T01:56:28;95569.94;;;8.85;84.23
6435;BME280;3250;42.694;23.278;2022-10-30T01:59:23;95574.00;;;8.87;84.10
6435;BME280;3250;42.694;23.278;2022-10-30T02:01:47;95548.84;;;8.78;83.05
6435;BME280;3250;42.694;23.278;2022-10-30T02:04:13;95556.16;;;8.83;83.39
6435;BME280;3250;42.694;23.278;2022-10-30T02:06:39;95536.19;;;8.67;83.50
6435;BME280;3250;42.694;23.278;2022-10-30T02:09:05;95540.91;;;8.72;83.27
6435;BME280;3250;42.694;23.278;2022-10-30T02:11:31;95563.03;;;8.84;82.58
6435;BME280;3250;42.694;23.278;2022-10-30T02:14:00;95548.78;;;8.72;82.37
6435;BME280;3250;42.694;23.278;2022-10-30T02:16:27;95558.19;;;8.81;82.55
6435;BME280;3250;42.694;23.278;2022-10-30T02:18:52;95556.72;;;8.78;82.41
6435;BME280;3250;42.694;23.278;2022-10-30T02:21:18;95553.94;;;8.80;82.01
6435;BME280;3250;42.694;23.278;2022-10-30T02:23:44;95487.22;;;8.30;82.62
6435;BME280;3250;42.694;23.278;2022-10-30T02:26:09;95557.34;;;8.65;83.29
6435;BME280;3250;42.694;23.278;2022-10-30T02:28:35;95550.31;;;8.51;84.15
6435;BME280;3250;42.694;23.278;2022-10-30T02:31:00;95523.78;;;8.31;84.82
6435;BME280;3250;42.694;23.278;2022-10-30T02:33:26;95551.69;;;8.47;83.92
6435;BME280;3250;42.694;23.278;2022-10-30T02:35:51;95549.06;;;8.47;83.62
6435;BME280;3250;42.694;23.278;2022-10-30T02:38:17;95538.63;;;8.39;83.39
6435;BME280;3250;42.694;23.278;2022-10-30T02:40:43;95520.59;;;8.21;83.31
6435;BME280;3250;42.694;23.278;2022-10-30T02:43:08;95547.94;;;8.42;83.61
6435;BME280;3250;42.694;23.278;2022-10-30T02:45:34;95487.19;;;8.01;83.08
6435;BME280;3250;42.694;23.278;2022-10-30T02:47:59;95489.66;;;8.02;82.94
6435;BME280;3250;42.694;23.278;2022-10-30T02:50:25;95544.88;;;8.38;83.02
6435;BME280;3250;42.694;23.278;2022-10-30T02:52:51;95558.00;;;8.38;83.00
6435;BME280;3250;42.694;23.278;2022-10-30T02:55:17;95561.63;;;8.37;82.92
6435;BME280;3250;42.694;23.278;2022-10-30T02:57:43;95558.16;;;8.37;83.70
6435;BME280;3250;42.694;23.278;2022-10-30T03:00:09;95556.38;;;8.37;83.29
6435;BME280;3250;42.694;23.278;2022-10-30T03:02:35;95550.66;;;8.33;83.30
6435;BME280;3250;42.694;23.278;2022-10-30T03:05:00;95561.22;;;8.40;83.05
6435;BME280;3250;42.694;23.278;2022-10-30T03:07:25;95489.91;;;7.92;82.68
6435;BME280;3250;42.694;23.278;2022-10-30T03:09:51;95527.25;;;8.09;83.25
6435;BME280;3250;42.694;23.278;2022-10-30T03:12:18;95489.09;;;7.92;83.31
6435;BME280;3250;42.694;23.278;2022-10-30T03:14:43;95529.72;;;8.11;83.12
6435;BME280;3250;42.694;23.278;2022-10-30T03:17:09;95579.03;;;8.30;83.34
6435;BME280;3250;42.694;23.278;2022-10-30T03:19:34;95576.75;;;8.27;83.35
6435;BME280;3250;42.694;23.278;2022-10-30T03:22:00;95583.63;;;8.28;83.72
6435;BME280;3250;42.694;23.278;2022-10-30T03:24:26;95523.69;;;7.87;84.00
6435;BME280;3250;42.694;23.278;2022-10-30T03:26:51;95554.38;;;8.02;84.21
6435;BME280;3250;42.694;23.278;2022-10-30T03:29:16;95529.63;;;7.81;85.45
6435;BME280;3250;42.694;23.278;2022-10-30T03:31:42;95563.50;;;8.06;86.03
6435;BME280;3250;42.694;23.278;2022-10-30T03:34:08;95562.50;;;8.07;85.23
6435;BME280;3250;42.694;23.278;2022-10-30T03:36:33;95566.59;;;8.09;84.42
6435;BME280;3250;42.694;23.278;2022-10-30T03:38:59;95576.09;;;8.10;84.40
6435;BME280;3250;42.694;23.278;2022-10-30T03:41:24;95563.88;;;8.03;84.28
6435;BME280;3250;42.694;23.278;2022-10-30T03:43:50;95579.34;;;8.12;83.96
6435;BME280;3250;42.694;23.278;2022-10-30T03:46:15;95535.13;;;7.94;84.08
6435;BME280;3250;42.694;23.278;2022-10-30T03:48:40;95562.44;;;8.15;84.65
6435;BME280;3250;42.694;23.278;2022-10-30T03:51:06;95552.56;;;8.02;83.65
6435;BME280;3250;42.694;23.278;2022-10-30T03:53:31;95546.59;;;7.93;83.85
6435;BME280;3250;42.694;23.278;2022-10-30T03:55:59;95571.03;;;8.09;83.64
6435;BME280;3250;42.694;23.278;2022-10-30T03:58:26;95563.88;;;8.03;83.85
6435;BME280;3250;42.694;23.278;2022-10-30T04:00:52;95553.38;;;8.03;83.85
6435;BME280;3250;42.694;23.278;2022-10-30T04:03:17;95551.22;;;8.06;84.16
6435;BME280;3250;42.694;23.278;2022-10-30T04:05:43;95531.16;;;7.76;84.58
6435;BME280;3250;42.694;23.278;2022-10-30T04:08:12;95548.72;;;7.90;85.35
6435;BME280;3250;42.694;23.278;2022-10-30T04:10:45;95552.34;;;7.89;85.44
6435;BME280;3250;42.694;23.278;2022-10-30T04:13:12;95559.22;;;7.90;85.08
6435;BME280;3250;42.694;23.278;2022-10-30T04:15:39;95553.97;;;7.90;84.98
6435;BME280;3250;42.694;23.278;2022-10-30T04:18:04;95554.97;;;7.89;84.43
6435;BME280;3250;42.694;23.278;2022-10-30T04:20:30;95508.59;;;7.52;85.52
6435;BME280;3250;42.694;23.278;2022-10-30T04:23:06;95542.97;;;7.72;85.17
6435;BME280;3250;42.694;23.278;2022-10-30T04:25:33;95492.41;;;7.48;85.20
6435;BME280;3250;42.694;23.278;2022-10-30T04:27:59;95523.81;;;7.71;84.39
6435;BME280;3250;42.694;23.278;2022-10-30T04:30:25;95541.41;;;7.85;84.47
6435;BME280;3250;42.694;23.278;2022-10-30T04:32:55;95547.75;;;7.91;85.14
6435;BME280;3250;42.694;23.278;2022-10-30T04:35:23;95548.56;;;7.91;85.42
6435;BME280;3250;42.694;23.278;2022-10-30T04:38:00;95539.53;;;7.71;86.09
6435;BME280;3250;42.694;23.278;2022-10-30T04:40:28;95551.59;;;7.80;86.91
6435;BME280;3250;42.694;23.278;2022-10-30T04:42:53;95553.78;;;7.77;87.34
6435;BME280;3250;42.694;23.278;2022-10-30T04:45:19;95508.47;;;7.45;87.11
6435;BME280;3250;42.694;23.278;2022-10-30T04:47:45;95523.03;;;7.48;88.02
6435;BME280;3250;42.694;23.278;2022-10-30T04:50:11;95563.66;;;7.67;88.42
6435;BME280;3250;42.694;23.278;2022-10-30T04:52:36;95491.72;;;7.32;88.59
6435;BME280;3250;42.694;23.278;2022-10-30T04:55:03;95509.47;;;7.44;88.06
6435;BME280;3250;42.694;23.278;2022-10-30T04:57:28;95567.63;;;7.85;87.68
6435;BME280;3250;42.694;23.278;2022-10-30T04:59:55;95560.03;;;7.90;87.10
6435;BME280;3250;42.694;23.278;2022-10-30T05:02:20;95564.56;;;7.96;86.69
6435;BME280;3250;42.694;23.278;2022-10-30T05:04:46;95560.94;;;7.97;85.90
6435;BME280;3250;42.694;23.278;2022-10-30T05:07:12;95568.19;;;7.95;85.93
6435;BME280;3250;42.694;23.278;2022-10-30T05:09:38;95569.19;;;7.94;85.86
6435;BME280;3250;42.694;23.278;2022-10-30T05:12:03;95522.91;;;7.64;85.91
6435;BME280;3250;42.694;23.278;2022-10-30T05:14:30;95568.63;;;7.84;85.73
6435;BME280;3250;42.694;23.278;2022-10-30T05:16:55;95581.25;;;7.81;87.06
6435;BME280;3250;42.694;23.278;2022-10-30T05:19:21;95577.13;;;7.86;86.59
6435;BME280;3250;42.694;23.278;2022-10-30T05:21:46;95540.25;;;7.65;85.85
6435;BME280;3250;42.694;23.278;2022-10-30T05:24:12;95574.94;;;7.90;85.83
6435;BME280;3250;42.694;23.278;2022-10-30T05:26:37;95537.22;;;7.76;85.42
6435;BME280;3250;42.694;23.278;2022-10-30T05:29:03;95532.97;;;7.75;85.29
6435;BME280;3250;42.694;23.278;2022-10-30T05:31:28;95568.81;;;7.97;84.97
6435;BME280;3250;42.694;23.278;2022-10-30T05:33:53;95547.72;;;7.76;85.90
6435;BME280;3250;42.694;23.278;2022-10-30T05:36:19;95526.34;;;7.65;86.58
6435;BME280;3250;42.694;23.278;2022-10-30T05:38:44;95501.84;;;7.57;85.99
6435;BME280;3250;42.694;23.278;2022-10-30T05:41:11;95580.97;;;8.13;86.79
6435;BME280;3250;42.694;23.278;2022-10-30T05:43:36;95555.84;;;8.04;86.00
6435;BME280;3250;42.694;23.278;2022-10-30T05:46:02;95545.97;;;8.06;85.81
6435;BME280;3250;42.694;23.278;2022-10-30T05:48:27;95535.31;;;8.08;85.07
6435;BME280;3250;42.694;23.278;2022-10-30T05:50:54;95585.66;;;8.41;86.10
6435;BME280;3250;42.694;23.278;2022-10-30T05:53:21;95514.78;;;8.11;86.55
6435;BME280;3250;42.694;23.278;2022-10-30T05:55:47;95516.06;;;8.15;86.90
6435;BME280;3250;42.694;23.278;2022-10-30T05:58:12;95494.63;;;8.12;86.53
6435;BME280;3250;42.694;23.278;2022-10-30T06:00:37;95576.34;;;8.82;86.00
6435;BME280;3250;42.694;23.278;2022-10-30T06:03:06;95505.44;;;8.46;85.93
6435;BME280;3250;42.694;23.278;2022-10-30T06:05:34;95580.88;;;9.03;86.37
6435;BME280;3250;42.694;23.278;2022-10-30T06:08:02;95569.72;;;9.16;86.48
6435;BME280;3250;42.694;23.278;2022-10-30T06:10:28;95490.47;;;8.76;86.24
6435;BME280;3250;42.694;23.278;2022-10-30T06:12:55;95530.50;;;9.14;86.50
6435;BME280;3250;42.694;23.278;2022-10-30T06:15:21;95517.19;;;9.16;86.10
6435;BME280;3250;42.694;23.278;2022-10-30T06:17:47;95510.72;;;9.18;86.01
6435;BME280;3250;42.694;23.278;2022-10-30T06:20:13;95521.47;;;9.38;85.87
6435;BME280;3250;42.694;23.278;2022-10-30T06:22:39;95571.22;;;9.82;85.28
6435;BME280;3250;42.694;23.278;2022-10-30T06:25:05;95535.50;;;9.66;85.29
6435;BME280;3250;42.694;23.278;2022-10-30T06:27:33;95566.97;;;10.02;85.53
6435;BME280;3250;42.694;23.278;2022-10-30T06:29:58;95521.63;;;9.79;84.91
6435;BME280;3250;42.694;23.278;2022-10-30T06:32:24;95508.31;;;9.80;84.59
6435;BME280;3250;42.694;23.278;2022-10-30T06:34:49;95545.84;;;10.17;84.27
6435;BME280;3250;42.694;23.278;2022-10-30T06:37:14;95542.38;;;10.16;83.08
6435;BME280;3250;42.694;23.278;2022-10-30T06:39:41;95505.06;;;10.06;83.51
6435;BME280;3250;42.694;23.278;2022-10-30T06:42:07;95587.50;;;10.63;82.62
6435;BME280;3250;42.694;23.278;2022-10-30T06:44:32;95538.94;;;10.37;82.38
6435;BME280;3250;42.694;23.278;2022-10-30T06:46:57;95518.09;;;10.42;81.64
6435;BME280;3250;42.694;23.278;2022-10-30T06:49:23;95526.88;;;10.56;81.26
6435;BME280;3250;42.694;23.278;2022-10-30T06:51:49;95607.63;;;11.11;81.53
6435;BME280;3250;42.694;23.278;2022-10-30T06:54:15;95608.88;;;11.22;81.22
6435;BME280;3250;42.694;23.278;2022-10-30T06:56:41;95514.25;;;10.79;80.96
6435;BME280;3250;42.694;23.278;2022-10-30T06:59:07;95598.03;;;11.51;80.38
6435;BME280;3250;42.694;23.278;2022-10-30T07:01:32;95508.13;;;11.13;79.80
6435;BME280;3250;42.694;23.278;2022-10-30T07:03:58;95513.03;;;11.36;78.28
6435;BME280;3250;42.694;23.278;2022-10-30T07:06:23;95565.28;;;11.80;78.00
6435;BME280;3250;42.694;23.278;2022-10-30T07:08:49;95599.03;;;12.24;77.82
6435;BME280;3250;42.694;23.278;2022-10-30T07:11:14;95606.53;;;12.47;76.81
6435;BME280;3250;42.694;23.278;2022-10-30T07:13:40;95604.09;;;12.65;76.23
6435;BME280;3250;42.694;23.278;2022-10-30T07:16:05;95513.13;;;12.35;74.64
6435;BME280;3250;42.694;23.278;2022-10-30T07:18:30;95539.84;;;12.71;74.43
6435;BME280;3250;42.694;23.278;2022-10-30T07:20:56;95584.91;;;13.23;73.83
6435;BME280;3250;42.694;23.278;2022-10-30T07:23:22;95584.34;;;13.52;72.44
6435;BME280;3250;42.694;23.278;2022-10-30T07:25:47;95533.50;;;13.50;71.24
6435;BME280;3250;42.694;23.278;2022-10-30T07:28:13;95560.97;;;13.87;71.98
6435;BME280;3250;42.694;23.278;2022-10-30T07:30:38;95529.63;;;13.84;72.04
6435;BME280;3250;42.694;23.278;2022-10-30T07:33:06;95579.19;;;14.33;71.69
6435;BME280;3250;42.694;23.278;2022-10-30T07:35:34;95580.50;;;14.49;71.06
6435;BME280;3250;42.694;23.278;2022-10-30T07:38:10;95568.63;;;14.76;70.32
6435;BME280;3250;42.694;23.278;2022-10-30T07:40:37;95569.00;;;15.16;68.28
6435;BME280;3250;42.694;23.278;2022-10-30T07:43:03;95529.41;;;15.03;66.10
6435;BME280;3250;42.694;23.278;2022-10-30T07:45:30;95575.25;;;15.58;66.11
6435;BME280;3250;42.694;23.278;2022-10-30T07:47:56;95540.41;;;15.55;66.46
6435;BME280;3250;42.694;23.278;2022-10-30T07:50:21;95575.09;;;16.01;63.75
6435;BME280;3250;42.694;23.278;2022-10-30T07:52:47;95539.03;;;15.94;63.99
6435;BME280;3250;42.694;23.278;2022-10-30T07:55:13;95571.56;;;16.19;65.40
6435;BME280;3250;42.694;23.278;2022-10-30T07:57:39;95564.16;;;16.21;63.10
6435;BME280;3250;42.694;23.278;2022-10-30T08:00:07;95563.84;;;16.29;63.95
6435;BME280;3250;42.694;23.278;2022-10-30T08:02:34;95542.25;;;16.49;64.05
6435;BME280;3250;42.694;23.278;2022-10-30T08:04:59;95554.06;;;16.88;62.78
6435;BME280;3250;42.694;23.278;2022-10-30T08:07:35;95541.94;;;17.04;60.58
6435;BME280;3250;42.694;23.278;2022-10-30T08:10:01;95542.25;;;17.19;59.84
6435;BME280;3250;42.694;23.278;2022-10-30T08:12:27;95498.50;;;17.15;59.45
6435;BME280;3250;42.694;23.278;2022-10-30T08:14:52;95504.53;;;17.10;59.95
6435;BME280;3250;42.694;23.278;2022-10-30T08:17:19;95546.75;;;17.58;59.45
6435;BME280;3250;42.694;23.278;2022-10-30T08:19:44;95490.59;;;17.60;58.29
6435;BME280;3250;42.694;23.278;2022-10-30T08:22:10;95540.75;;;18.08;57.10
6435;BME280;3250;42.694;23.278;2022-10-30T08:24:36;95540.88;;;17.85;57.75
6435;BME280;3250;42.694;23.278;2022-10-30T08:27:02;95469.09;;;17.50;59.57
6435;BME280;3250;42.694;23.278;2022-10-30T08:29:28;95516.22;;;18.06;57.74
6435;BME280;3250;42.694;23.278;2022-10-30T08:31:54;95540.00;;;18.41;57.53
6435;BME280;3250;42.694;23.278;2022-10-30T08:34:19;95487.19;;;18.43;57.82
6435;BME280;3250;42.694;23.278;2022-10-30T08:36:50;95513.31;;;18.74;57.66
6435;BME280;3250;42.694;23.278;2022-10-30T08:39:16;95550.59;;;19.08;55.89
6435;BME280;3250;42.694;23.278;2022-10-30T08:41:42;95539.06;;;19.24;55.64
6435;BME280;3250;42.694;23.278;2022-10-30T08:44:08;95508.09;;;19.01;54.74
6435;BME280;3250;42.694;23.278;2022-10-30T08:46:33;95541.88;;;19.34;55.11
6435;BME280;3250;42.694;23.278;2022-10-30T08:48:59;95547.66;;;19.48;53.56
6435;BME280;3250;42.694;23.278;2022-10-30T08:51:24;95534.47;;;19.41;54.79
6435;BME280;3250;42.694;23.278;2022-10-30T08:53:50;95504.47;;;19.34;55.01
6435;BME280;3250;42.694;23.278;2022-10-30T08:56:16;95531.38;;;19.71;53.02
6435;BME280;3250;42.694;23.278;2022-10-30T08:58:41;95520.31;;;19.89;53.56
6435;BME280;3250;42.694;23.278;2022-10-30T09:01:07;95508.47;;;20.07;53.42
6435;BME280;3250;42.694;23.278;2022-10-30T09:03:32;95468.88;;;20.04;51.67
6435;BME280;3250;42.694;23.278;2022-10-30T09:05:58;95520.53;;;20.42;52.14
6435;BME280;3250;42.694;23.278;2022-10-30T09:08:24;95524.59;;;20.44;52.10
6435;BME280;3250;42.694;23.278;2022-10-30T09:10:54;95487.75;;;19.92;51.39
6435;BME280;3250;42.694;23.278;2022-10-30T09:13:20;95508.13;;;19.72;53.30
6435;BME280;3250;42.694;23.278;2022-10-30T09:15:45;95512.56;;;19.61;54.43
6435;BME280;3250;42.694;23.278;2022-10-30T09:18:11;95485.97;;;19.71;54.23
6435;BME280;3250;42.694;23.278;2022-10-30T09:20:36;95486.13;;;19.91;52.88
6435;BME280;3250;42.694;23.278;2022-10-30T09:23:02;95456.22;;;19.63;52.82
6435;BME280;3250;42.694;23.278;2022-10-30T09:25:28;95480.44;;;19.83;52.98
6435;BME280;3250;42.694;23.278;2022-10-30T09:27:53;95482.41;;;19.92;53.59
6435;BME280;3250;42.694;23.278;2022-10-30T09:30:19;95465.19;;;19.78;52.62
6435;BME280;3250;42.694;23.278;2022-10-30T09:32:44;95508.78;;;20.16;52.51
6435;BME280;3250;42.694;23.278;2022-10-30T09:35:10;95443.38;;;19.65;52.75
6435;BME280;3250;42.694;23.278;2022-10-30T09:37:36;95504.94;;;20.02;53.19
6435;BME280;3250;42.694;23.278;2022-10-30T09:40:03;95427.78;;;19.51;53.16
6435;BME280;3250;42.694;23.278;2022-10-30T09:56:07;95470.19;;;20.02;54.13
6435;BME280;3250;42.694;23.278;2022-10-30T09:58:57;95461.13;;;20.03;53.80
6435;BME280;3250;42.694;23.278;2022-10-30T10:01:33;95464.28;;;20.00;54.88
6435;BME280;3250;42.694;23.278;2022-10-30T10:06:55;95446.38;;;20.00;54.75
6435;BME280;3250;42.694;23.278;2022-10-30T10:09:24;95438.91;;;19.97;54.35
6435;BME280;3250;42.694;23.278;2022-10-30T10:11:56;95421.97;;;19.86;54.32
6435;BME280;3250;42.694;23.278;2022-10-30T10:14:32;95424.44;;;19.98;55.06
6435;BME280;3250;42.694;23.278;2022-10-30T10:17:01;95428.59;;;20.16;54.44
6435;BME280;3250;42.694;23.278;2022-10-30T10:19:34;95424.59;;;20.13;53.99
6435;BME280;3250;42.694;23.278;2022-10-30T10:22:13;95394.19;;;19.92;55.08
6435;BME280;3250;42.694;23.278;2022-10-30T10:24:43;95388.84;;;19.92;54.48
6435;BME280;3250;42.694;23.278;2022-10-30T10:30:00;95379.53;;;19.95;53.98
6435;BME280;3250;42.694;23.278;2022-10-30T10:37:39;95374.22;;;20.00;53.27
6435;BME280;3250;42.694;23.278;2022-10-30T10:50:46;95396.00;;;20.19;53.34
6435;BME280;3250;42.694;23.278;2022-10-30T10:53:23;95371.38;;;20.17;53.13
6435;BME280;3250;42.694;23.278;2022-10-30T10:55:51;95320.09;;;19.83;52.83
6435;BME280;3250;42.694;23.278;2022-10-30T10:58:24;95374.84;;;20.17;53.59
6435;BME280;3250;42.694;23.278;2022-10-30T11:00:51;95376.47;;;20.18;53.16
6435;BME280;3250;42.694;23.278;2022-10-30T11:03:22;95310.19;;;19.78;53.19
6435;BME280;3250;42.694;23.278;2022-10-30T11:05:53;95369.81;;;20.21;53.48
6435;BME280;3250;42.694;23.278;2022-10-30T11:08:25;95367.16;;;20.26;52.43
6435;BME280;3250;42.694;23.278;2022-10-30T11:10:59;95324.31;;;20.11;52.16
6435;BME280;3250;42.694;23.278;2022-10-30T11:13:28;95350.34;;;20.30;52.94
6435;BME280;3250;42.694;23.278;2022-10-30T11:16:00;95349.81;;;20.33;52.36
6435;BME280;3250;42.694;23.278;2022-10-30T11:18:29;95341.56;;;20.35;52.35
6435;BME280;3250;42.694;23.278;2022-10-30T11:21:10;95343.47;;;20.40;51.50
6435;BME280;3250;42.694;23.278;2022-10-30T11:23:40;95340.00;;;20.39;51.39
6435;BME280;3250;42.694;23.278;2022-10-30T11:29:10;95328.75;;;20.42;51.87
6435;BME280;3250;42.694;23.278;2022-10-30T11:31:43;95326.13;;;20.47;52.14
6435;BME280;3250;42.694;23.278;2022-10-30T11:36:52;95326.19;;;20.57;51.86
6435;BME280;3250;42.694;23.278;2022-10-30T11:42:06;95313.34;;;20.64;49.98
6435;BME280;3250;42.694;23.278;2022-10-30T11:44:40;95318.97;;;20.68;49.38
6435;BME280;3250;42.694;23.278;2022-10-30T11:47:08;95312.81;;;20.67;49.31
6435;BME280;3250;42.694;23.278;2022-10-30T11:49:45;95309.06;;;20.68;49.49
6435;BME280;3250;42.694;23.278;2022-10-30T11:52:16;95277.97;;;20.47;49.41
6435;BME280;3250;42.694;23.278;2022-10-30T11:54:48;95310.16;;;20.73;49.53
6435;BME280;3250;42.694;23.278;2022-10-30T11:57:20;95304.81;;;20.78;50.08
6435;BME280;3250;42.694;23.278;2022-10-30T11:59:48;95309.41;;;20.87;48.78
6435;BME280;3250;42.694;23.278;2022-10-30T12:02:26;95306.22;;;20.90;49.79
6435;BME280;3250;42.694;23.278;2022-10-30T12:04:53;95283.69;;;20.81;49.62
6435;BME280;3250;42.694;23.278;2022-10-30T12:09:48;95273.53;;;20.83;48.48
6435;BME280;3250;42.694;23.278;2022-10-30T12:14:47;95295.78;;;21.04;48.62
6435;BME280;3250;42.694;23.278;2022-10-30T12:17:14;95295.53;;;21.05;48.47
6435;BME280;3250;42.694;23.278;2022-10-30T12:19:45;95285.63;;;21.06;48.91
6435;BME280;3250;42.694;23.278;2022-10-30T12:22:23;95234.97;;;20.79;48.51
6435;BME280;3250;42.694;23.278;2022-10-30T12:24:51;95255.09;;;20.97;47.84
6435;BME280;3250;42.694;23.278;2022-10-30T12:27:16;95244.09;;;20.88;47.88
6435;BME280;3250;42.694;23.278;2022-10-30T12:32:12;95277.09;;;21.19;48.05
6435;BME280;3250;42.694;23.278;2022-10-30T12:34:45;95189.22;;;20.81;48.02
6435;BME280;3250;42.694;23.278;2022-10-30T12:37:57;95231.28;;;21.21;47.43
6435;BME280;3250;42.694;23.278;2022-10-30T12:42:43;95269.31;;;21.73;47.42
6435;BME280;3250;42.694;23.278;2022-10-30T12:45:25;95221.09;;;21.58;45.78
6435;BME280;3250;42.694;23.278;2022-10-30T12:48:01;95263.66;;;21.95;44.60
6435;BME280;3250;42.694;23.278;2022-10-30T12:53:59;95256.09;;;22.23;43.03
6435;BME280;3250;42.694;23.278;2022-10-30T12:56:36;95261.13;;;22.34;43.81
6435;BME280;3250;42.694;23.278;2022-10-30T13:04:40;95234.41;;;22.68;43.68
6435;BME280;3250;42.694;23.278;2022-10-30T13:07:34;95248.84;;;22.87;43.09
6435;BME280;3250;42.694;23.278;2022-10-30T13:10:21;95243.13;;;22.99;42.40
6435;BME280;3250;42.694;23.278;2022-10-30T13:12:51;95237.97;;;23.08;41.86
6435;BME280;3250;42.694;23.278;2022-10-30T13:15:28;95206.13;;;22.91;40.86
6435;BME280;3250;42.694;23.278;2022-10-30T13:17:57;95241.66;;;23.17;40.83
6435;BME280;3250;42.694;23.278;2022-10-30T13:20:25;95234.09;;;23.19;39.96
6435;BME280;3250;42.694;23.278;2022-10-30T13:23:03;95233.56;;;23.22;39.23
6435;BME280;3250;42.694;23.278;2022-10-30T13:28:32;95229.06;;;23.12;40.07
6435;BME280;3250;42.694;23.278;2022-10-30T13:31:31;95233.41;;;23.08;40.37
6435;BME280;3250;42.694;23.278;2022-10-30T13:37:02;95230.50;;;23.00;41.05
6435;BME280;3250;42.694;23.278;2022-10-30T13:39:42;95236.41;;;22.97;40.90
6435;BME280;3250;42.694;23.278;2022-10-30T13:52:56;95216.41;;;22.19;42.18
6435;BME280;3250;42.694;23.278;2022-10-30T13:55:25;95191.53;;;21.89;42.98
6435;BME280;3250;42.694;23.278;2022-10-30T14:06:46;95235.25;;;21.84;44.32
6435;BME280;3250;42.694;23.278;2022-10-30T14:26:10;95247.34;;;21.05;46.40
6435;BME280;3250;42.694;23.278;2022-10-30T14:28:39;95242.75;;;20.96;46.90
6435;BME280;3250;42.694;23.278;2022-10-30T14:31:10;95190.50;;;20.53;47.03
6435;BME280;3250;42.694;23.278;2022-10-30T14:33:48;95201.47;;;20.51;47.72
6435;BME280;3250;42.694;23.278;2022-10-30T14:49:46;95204.19;;;19.99;49.32
6435;BME280;3250;42.694;23.278;2022-10-30T15:05:32;95252.28;;;19.89;51.15
6435;BME280;3250;42.694;23.278;2022-10-30T15:13:48;95198.78;;;19.42;51.77
6435;BME280;3250;42.694;23.278;2022-10-30T15:16:17;95190.13;;;19.25;51.88
6435;BME280;3250;42.694;23.278;2022-10-30T15:19:04;95232.72;;;19.46;52.20
6435;BME280;3250;42.694;23.278;2022-10-30T15:21:30;95207.75;;;19.26;52.16
6435;BME280;3250;42.694;23.278;2022-10-30T15:23:59;95250.66;;;19.46;52.58
6435;BME280;3250;42.694;23.278;2022-10-30T15:26:38;95210.84;;;19.12;52.51
6435;BME280;3250;42.694;23.278;2022-10-30T15:29:04;95240.34;;;19.28;53.16
6435;BME280;3250;42.694;23.278;2022-10-30T15:31:31;95194.97;;;18.96;53.32
6435;BME280;3250;42.694;23.278;2022-10-30T15:33:57;95222.56;;;19.06;53.16
6435;BME280;3250;42.694;23.278;2022-10-30T15:36:40;95226.88;;;19.12;53.48
6435;BME280;3250;42.694;23.278;2022-10-30T15:39:13;95252.84;;;19.22;53.57
6435;BME280;3250;42.694;23.278;2022-10-30T15:41:46;95193.59;;;18.88;53.36
6435;BME280;3250;42.694;23.278;2022-10-30T15:44:14;95255.22;;;19.18;53.78
6435;BME280;3250;42.694;23.278;2022-10-30T15:46:45;95247.13;;;19.08;54.01
6435;BME280;3250;42.694;23.278;2022-10-30T15:51:51;95208.31;;;18.64;54.43
6435;BME280;3250;42.694;23.278;2022-10-30T15:54:17;95255.81;;;18.94;54.79
6435;BME280;3250;42.694;23.278;2022-10-30T15:56:47;95263.25;;;18.92;54.78
6435;BME280;3250;42.694;23.278;2022-10-30T15:59:26;95174.09;;;18.34;54.52
6435;BME280;3250;42.694;23.278;2022-10-30T16:01:56;95266.06;;;18.80;55.02
6435;BME280;3250;42.694;23.278;2022-10-30T16:04:34;95262.56;;;18.74;55.00
6435;BME280;3250;42.694;23.278;2022-10-30T16:07:01;95264.34;;;18.69;55.11